createdAt,value
2023-05-01T00:00:11.393Z,46.83
2023-05-01T00:01:11.265Z,46.75
2023-05-01T00:02:11.285Z,46.85
2023-05-01T00:03:11.447Z,46.67
2023-05-01T00:04:11.519Z,46.77
2023-05-01T00:05:11.594Z,46.75
2023-05-01T00:06:11.425Z,46.80
2023-05-01T00:07:11.278Z,46.52
2023-05-01T00:08:11.238Z,46.53
2023-05-01T00:09:11.228Z,46.77
2023-05-01T00:10:11.320Z,46.98
2023-05-01T00:11:11.188Z,47.01
2023-05-01T00:12:11.194Z,47.08
2023-05-01T00:13:11.177Z,47.13
2023-05-01T00:14:11.176Z,47.28
2023-05-01T00:15:11.181Z,47.24
2023-05-01T00:16:11.175Z,47.30
2023-05-01T00:17:11.174Z,47.35
2023-05-01T00:18:11.206Z,47.01
2023-05-01T00:19:11.158Z,47.36
2023-05-01T00:20:11.201Z,47.13
2023-05-01T00:21:11.244Z,47.06
2023-05-01T00:22:11.265Z,46.98
2023-05-01T00:23:11.300Z,47.12
2023-05-01T00:24:11.369Z,47.15
2023-05-01T00:25:11.404Z,47.18
2023-05-01T00:26:11.464Z,47.27
2023-05-01T00:27:11.470Z,47.18
2023-05-01T00:28:11.488Z,47.14
2023-05-01T00:29:11.510Z,47.07
2023-05-01T00:30:11.520Z,47.03
2023-05-01T00:31:11.486Z,47.02
2023-05-01T00:32:11.644Z,47.41
2023-05-01T00:33:11.521Z,47.34
2023-05-01T00:34:11.514Z,47.48
2023-05-01T00:35:11.934Z,47.24
2023-05-01T00:36:12.361Z,47.02
2023-05-01T00:37:11.444Z,47.20
2023-05-01T00:38:11.438Z,47.20
2023-05-01T00:39:11.480Z,47.37
2023-05-01T00:40:11.425Z,47.28
2023-05-01T00:41:11.429Z,46.97
2023-05-01T00:42:11.445Z,47.08
2023-05-01T00:43:11.404Z,47.19
2023-05-01T00:44:11.378Z,47.23
2023-05-01T00:45:12.002Z,47.20
2023-05-01T00:46:11.401Z,47.34
2023-05-01T00:47:11.397Z,47.43
2023-05-01T00:48:11.426Z,47.39
2023-05-01T00:49:11.378Z,47.43
2023-05-01T00:50:11.346Z,47.60
2023-05-01T00:51:11.368Z,47.81
2023-05-01T00:52:11.354Z,47.81
2023-05-01T00:53:11.311Z,47.92
2023-05-01T00:54:11.413Z,48.11
2023-05-01T00:55:11.414Z,48.10
2023-05-01T00:56:11.463Z,47.88
2023-05-01T00:57:11.508Z,47.96
2023-05-01T00:58:12.393Z,47.82
2023-05-01T00:59:11.502Z,47.44
2023-05-01T01:00:11.474Z,47.45
2023-05-01T01:01:11.499Z,47.45
2023-05-01T01:02:11.511Z,47.57
2023-05-01T01:03:11.441Z,47.67
2023-05-01T01:04:11.481Z,47.94
2023-05-01T01:05:11.469Z,48.04
2023-05-01T01:06:11.456Z,48.00
2023-05-01T01:07:11.476Z,48.01
2023-05-01T01:08:11.451Z,48.09
2023-05-01T01:09:11.474Z,48.56
2023-05-01T01:10:11.600Z,48.44
2023-05-01T01:11:11.554Z,48.45
2023-05-01T01:12:11.610Z,48.33
2023-05-01T01:13:11.654Z,48.31
2023-05-01T01:14:11.711Z,48.26
2023-05-01T01:15:11.826Z,48.26
2023-05-01T01:16:11.852Z,48.20
2023-05-01T01:17:11.981Z,48.17
2023-05-01T01:18:11.881Z,48.06
2023-05-01T01:19:11.901Z,48.17
2023-05-01T01:20:11.925Z,48.33
2023-05-01T01:21:11.943Z,48.47
2023-05-01T01:22:12.524Z,48.37
2023-05-01T01:23:11.810Z,48.50
2023-05-01T01:24:11.852Z,48.25
2023-05-01T01:25:11.815Z,48.22
2023-05-01T01:26:11.812Z,48.46
2023-05-01T01:27:12.487Z,48.27
2023-05-01T01:28:11.961Z,48.27
2023-05-01T01:29:12.088Z,48.64
2023-05-01T01:30:12.038Z,48.24
2023-05-01T01:31:13.044Z,48.31
2023-05-01T01:32:12.208Z,48.43
2023-05-01T01:33:12.237Z,48.41
2023-05-01T01:34:12.278Z,48.35
2023-05-01T01:35:12.299Z,48.34
2023-05-01T01:36:12.433Z,48.32
2023-05-01T01:37:12.452Z,48.46
2023-05-01T01:38:12.508Z,48.23
2023-05-01T01:39:12.587Z,48.56
2023-05-01T01:40:12.536Z,48.67
2023-05-01T01:41:13.021Z,48.61
2023-05-01T01:42:12.964Z,48.65
2023-05-01T01:43:15.437Z,48.37
2023-05-01T01:44:12.762Z,48.13
2023-05-01T01:45:12.679Z,48.24
2023-05-01T01:46:12.692Z,48.07
2023-05-01T01:47:12.655Z,48.10
2023-05-01T01:48:12.733Z,48.16
2023-05-01T01:49:12.629Z,48.27
2023-05-01T01:50:12.631Z,48.57
2023-05-01T01:51:12.675Z,48.77
2023-05-01T01:52:12.652Z,48.74
2023-05-01T01:53:12.611Z,49.17
2023-05-01T01:54:12.621Z,49.32
2023-05-01T01:55:13.521Z,48.68
2023-05-01T01:56:12.619Z,48.25
2023-05-01T01:57:12.622Z,48.41
2023-05-01T01:58:12.585Z,48.27
2023-05-01T01:59:12.622Z,48.35
2023-05-01T02:00:12.655Z,48.25
2023-05-01T02:01:12.786Z,48.27
2023-05-01T02:02:12.784Z,48.31
2023-05-01T02:03:12.994Z,48.38
2023-05-01T02:04:12.993Z,48.52
2023-05-01T02:05:12.995Z,48.36
2023-05-01T02:06:13.972Z,48.39
2023-05-01T02:07:13.030Z,48.56
2023-05-01T02:08:13.027Z,48.68
2023-05-01T02:09:13.017Z,48.67
2023-05-01T02:10:13.005Z,48.52
2023-05-01T02:11:12.980Z,48.53
2023-05-01T02:12:13.016Z,48.64
2023-05-01T02:13:13.014Z,48.71
2023-05-01T02:14:13.038Z,48.98
2023-05-01T02:15:13.000Z,48.97
2023-05-01T02:16:13.020Z,48.82
2023-05-01T02:17:12.953Z,48.84
2023-05-01T02:18:12.919Z,48.71
2023-05-01T02:19:12.968Z,48.90
2023-05-01T02:20:13.936Z,48.98
2023-05-01T02:21:12.953Z,48.99
2023-05-01T02:22:12.945Z,49.03
2023-05-01T02:23:12.909Z,49.14
2023-05-01T02:24:12.946Z,49.35
2023-05-01T02:25:12.907Z,49.07
2023-05-01T02:26:12.909Z,49.14
2023-05-01T02:27:12.879Z,49.32
2023-05-01T02:28:12.883Z,49.50
2023-05-01T02:29:12.887Z,49.34
2023-05-01T02:30:12.887Z,49.55
2023-05-01T02:31:12.938Z,49.71
2023-05-01T02:32:12.898Z,49.60
2023-05-01T02:33:12.956Z,49.52
2023-05-01T02:34:13.019Z,49.41
2023-05-01T02:35:13.056Z,49.66
2023-05-01T02:36:13.125Z,49.69
2023-05-01T02:37:13.215Z,49.58
2023-05-01T02:38:13.212Z,49.31
2023-05-01T02:39:13.206Z,49.34
2023-05-01T02:40:13.917Z,49.40
2023-05-01T02:41:13.308Z,49.32
2023-05-01T02:42:13.331Z,49.28
2023-05-01T02:43:13.403Z,49.36
2023-05-01T02:44:13.433Z,49.41
2023-05-01T02:45:13.468Z,49.44
2023-05-01T02:46:13.570Z,49.72
2023-05-01T02:47:13.626Z,49.44
2023-05-01T02:48:13.616Z,49.49
2023-05-01T02:49:13.555Z,49.47
2023-05-01T02:50:13.506Z,48.89
2023-05-01T02:51:13.530Z,48.95
2023-05-01T02:52:13.473Z,48.95
2023-05-01T02:53:13.482Z,49.15
2023-05-01T02:54:13.485Z,49.32
2023-05-01T02:55:13.529Z,49.47
2023-05-01T02:56:13.627Z,49.46
2023-05-01T02:57:13.680Z,49.25
2023-05-01T02:58:13.740Z,49.10
2023-05-01T02:59:13.832Z,49.12
2023-05-01T03:00:14.088Z,49.17
2023-05-01T03:01:13.949Z,49.11
2023-05-01T03:02:13.913Z,49.34
2023-05-01T03:03:14.056Z,49.42
2023-05-01T03:04:14.088Z,49.41
2023-05-01T03:05:14.088Z,49.52
2023-05-01T03:06:14.360Z,49.68
2023-05-01T03:07:14.275Z,49.68
2023-05-01T03:08:14.298Z,49.59
2023-05-01T03:09:14.302Z,49.57
2023-05-01T03:10:14.344Z,49.57
2023-05-01T03:11:14.378Z,49.70
2023-05-01T03:12:14.455Z,49.72
2023-05-01T03:13:14.481Z,49.66
2023-05-01T03:14:14.564Z,49.70
2023-05-01T03:15:15.420Z,49.62
2023-05-01T03:16:14.737Z,49.65
2023-05-01T03:17:14.782Z,49.91
2023-05-01T03:18:15.433Z,49.97
2023-05-01T03:19:14.900Z,49.78
2023-05-01T03:20:14.949Z,49.76
2023-05-01T03:21:15.419Z,49.69
2023-05-01T03:22:15.084Z,49.85
2023-05-01T03:23:15.090Z,49.97
2023-05-01T03:24:15.240Z,49.98
2023-05-01T03:25:15.172Z,49.93
2023-05-01T03:26:15.254Z,49.93
2023-05-01T03:27:15.941Z,50.08
2023-05-01T03:28:15.402Z,50.11
2023-05-01T03:29:15.418Z,50.07
2023-05-01T03:30:15.439Z,50.03
2023-05-01T03:31:15.514Z,50.24
2023-05-01T03:32:15.610Z,50.25
2023-05-01T03:33:15.649Z,50.20
2023-05-01T03:34:15.660Z,50.12
2023-05-01T03:35:15.836Z,50.19
2023-05-01T03:36:15.938Z,50.00
2023-05-01T03:37:15.903Z,49.87
2023-05-01T03:38:15.963Z,49.82
2023-05-01T03:39:16.011Z,49.89
2023-05-01T03:40:16.043Z,50.13
2023-05-01T03:41:16.117Z,50.10
2023-05-01T03:42:16.433Z,50.02
2023-05-01T03:43:16.244Z,49.95
2023-05-01T03:44:16.311Z,49.85
2023-05-01T03:45:16.339Z,49.91
2023-05-01T03:46:16.533Z,50.08
2023-05-01T03:47:16.464Z,50.16
2023-05-01T03:48:16.501Z,50.24
2023-05-01T03:49:16.614Z,50.24
2023-05-01T03:50:16.620Z,50.23
2023-05-01T03:51:16.717Z,50.31
2023-05-01T03:52:16.781Z,50.66
2023-05-01T03:53:16.760Z,50.61
2023-05-01T03:54:16.803Z,50.49
2023-05-01T03:55:16.828Z,50.58
2023-05-01T03:56:16.816Z,50.63
2023-05-01T03:57:16.862Z,50.93
2023-05-01T03:58:16.801Z,51.04
2023-05-01T03:59:16.779Z,51.03
2023-05-01T04:00:16.794Z,50.95
2023-05-01T04:01:16.794Z,50.94
2023-05-01T04:02:16.854Z,50.96
2023-05-01T04:03:16.856Z,51.08
2023-05-01T04:04:16.885Z,50.90
2023-05-01T04:05:16.801Z,50.82
2023-05-01T04:06:16.897Z,50.85
2023-05-01T04:07:16.816Z,50.93
2023-05-01T04:08:16.836Z,51.02
2023-05-01T04:09:16.817Z,50.82
2023-05-01T04:10:16.820Z,51.08
2023-05-01T04:11:16.836Z,50.94
2023-05-01T04:12:16.814Z,50.88
2023-05-01T04:13:16.805Z,50.90
2023-05-01T04:14:16.795Z,50.70
2023-05-01T04:15:16.787Z,50.73
2023-05-01T04:16:16.892Z,50.72
2023-05-01T04:17:16.848Z,50.61
2023-05-01T04:18:16.874Z,50.60
2023-05-01T04:19:16.832Z,50.76
2023-05-01T04:20:16.832Z,50.74
2023-05-01T04:21:16.833Z,50.81
2023-05-01T04:22:16.819Z,50.92
2023-05-01T04:23:16.814Z,51.06
2023-05-01T04:24:16.820Z,51.07
2023-05-01T04:25:16.844Z,51.19
2023-05-01T04:26:16.832Z,51.29
2023-05-01T04:27:16.898Z,51.06
2023-05-01T04:28:16.842Z,50.95
2023-05-01T04:29:16.884Z,50.89
2023-05-01T04:30:16.944Z,50.96
2023-05-01T04:31:17.030Z,51.02
2023-05-01T04:32:17.069Z,50.92
2023-05-01T04:33:17.120Z,51.02
2023-05-01T04:34:17.174Z,51.23
2023-05-01T04:35:17.246Z,51.41
2023-05-01T04:36:17.291Z,51.23
2023-05-01T04:37:17.326Z,51.21
2023-05-01T04:38:17.359Z,51.15
2023-05-01T04:39:17.399Z,51.07
2023-05-01T04:40:17.387Z,51.17
2023-05-01T04:41:17.405Z,51.27
2023-05-01T04:42:17.425Z,51.35
2023-05-01T04:43:17.393Z,51.29
2023-05-01T04:44:17.437Z,51.26
2023-05-01T04:45:17.484Z,51.40
2023-05-01T04:46:17.510Z,51.29
2023-05-01T04:47:17.534Z,51.36
2023-05-01T04:48:17.619Z,51.30
2023-05-01T04:49:17.545Z,51.24
2023-05-01T04:50:17.570Z,51.19
2023-05-01T04:51:17.555Z,51.35
2023-05-01T04:52:17.564Z,51.12
2023-05-01T04:53:17.570Z,51.19
2023-05-01T04:54:17.577Z,51.25
2023-05-01T04:55:17.543Z,51.35
2023-05-01T04:56:17.571Z,51.40
2023-05-01T04:57:17.602Z,51.64
2023-05-01T04:58:17.632Z,51.73
2023-05-01T04:59:17.585Z,51.72
2023-05-01T05:00:17.617Z,51.64
2023-05-01T05:01:17.685Z,51.47
2023-05-01T05:02:17.622Z,51.64
2023-05-01T05:03:17.715Z,51.52
2023-05-01T05:04:17.630Z,51.47
2023-05-01T05:05:17.596Z,51.54
2023-05-01T05:06:17.648Z,51.41
2023-05-01T05:07:17.647Z,51.32
2023-05-01T05:08:17.703Z,51.15
2023-05-01T05:09:20.040Z,51.19
2023-05-01T05:10:17.620Z,51.26
2023-05-01T05:11:17.576Z,51.33
2023-05-01T05:12:17.621Z,51.42
2023-05-01T05:13:17.567Z,51.44
2023-05-01T05:14:17.553Z,51.63
2023-05-01T05:15:17.579Z,51.63
2023-05-01T05:16:17.604Z,51.35
2023-05-01T05:17:17.573Z,51.37
2023-05-01T05:18:17.715Z,51.53
2023-05-01T05:19:18.489Z,51.56
2023-05-01T05:20:17.551Z,51.46
2023-05-01T05:21:17.540Z,51.12
2023-05-01T05:22:17.523Z,51.14
2023-05-01T05:23:17.497Z,51.08
2023-05-01T05:24:17.515Z,50.96
2023-05-01T05:25:17.481Z,51.06
2023-05-01T05:26:17.473Z,50.98
2023-05-01T05:27:17.500Z,51.09
2023-05-01T05:28:17.489Z,51.01
2023-05-01T05:29:17.476Z,51.07
2023-05-01T05:30:17.472Z,51.10
2023-05-01T05:31:17.461Z,51.20
2023-05-01T05:32:17.501Z,51.18
2023-05-01T05:33:17.476Z,51.08
2023-05-01T05:34:17.452Z,51.08
2023-05-01T05:35:17.478Z,51.33
2023-05-01T05:36:17.428Z,51.36
2023-05-01T05:37:17.440Z,51.28
2023-05-01T05:38:17.396Z,51.26
2023-05-01T05:39:17.401Z,51.19
2023-05-01T05:40:17.401Z,50.88
2023-05-01T05:41:17.377Z,50.96
2023-05-01T05:42:17.373Z,50.95
2023-05-01T05:43:17.382Z,51.32
2023-05-01T05:44:17.370Z,51.25
2023-05-01T05:45:17.373Z,51.44
2023-05-01T05:46:17.387Z,51.31
2023-05-01T05:47:17.375Z,51.26
2023-05-01T05:48:17.434Z,50.90
2023-05-01T05:49:17.330Z,50.80
2023-05-01T05:50:17.330Z,50.95
2023-05-01T05:51:17.332Z,51.18
2023-05-01T05:52:17.652Z,51.40
2023-05-01T05:53:17.391Z,51.16
2023-05-01T05:54:17.483Z,51.13
2023-05-01T05:55:17.521Z,51.08
2023-05-01T05:56:17.577Z,50.92
2023-05-01T05:57:17.648Z,50.87
2023-05-01T05:58:17.668Z,50.83
2023-05-01T05:59:18.480Z,51.02
2023-05-01T06:00:17.831Z,50.99
2023-05-01T06:01:17.848Z,51.18
2023-05-01T06:02:17.927Z,51.18
2023-05-01T06:03:18.010Z,51.27
2023-05-01T06:04:18.003Z,51.33
2023-05-01T06:05:18.054Z,51.35
2023-05-01T06:06:18.128Z,51.18
2023-05-01T06:07:18.150Z,51.36
2023-05-01T06:08:18.183Z,50.87
2023-05-01T06:09:18.247Z,51.13
2023-05-01T06:10:18.309Z,51.13
2023-05-01T06:11:18.334Z,50.73
2023-05-01T06:12:18.388Z,51.04
2023-05-01T06:13:18.420Z,51.26
2023-05-01T06:14:18.474Z,50.96
2023-05-01T06:15:18.515Z,50.92
2023-05-01T06:16:18.579Z,50.56
2023-05-01T06:17:18.602Z,50.66
2023-05-01T06:18:18.668Z,50.82
2023-05-01T06:19:18.655Z,50.34
2023-05-01T06:20:18.719Z,50.17
2023-05-01T06:21:18.729Z,50.26
2023-05-01T06:22:18.761Z,50.10
2023-05-01T06:23:18.769Z,50.14
2023-05-01T06:24:18.847Z,50.53
2023-05-01T06:25:18.828Z,50.42
2023-05-01T06:26:18.895Z,50.61
2023-05-01T06:27:18.905Z,50.37
2023-05-01T06:28:18.942Z,50.16
2023-05-01T06:29:18.954Z,50.22
2023-05-01T06:30:18.989Z,50.52
2023-05-01T06:31:19.045Z,50.31
2023-05-01T06:32:19.043Z,50.33
2023-05-01T06:33:19.093Z,50.48
2023-05-01T06:34:19.089Z,50.32
2023-05-01T06:35:19.098Z,49.98
2023-05-01T06:36:19.119Z,49.94
2023-05-01T06:37:19.151Z,49.74
2023-05-01T06:38:19.192Z,49.66
2023-05-01T06:39:19.208Z,49.80
2023-05-01T06:40:19.228Z,49.86
2023-05-01T06:41:19.334Z,49.88
2023-05-01T06:42:19.198Z,49.56
2023-05-01T06:43:19.203Z,49.27
2023-05-01T06:44:19.218Z,49.22
2023-05-01T06:45:19.272Z,49.32
2023-05-01T06:46:19.301Z,49.30
2023-05-01T06:47:19.337Z,49.24
2023-05-01T06:48:19.299Z,49.46
2023-05-01T06:49:19.315Z,49.81
2023-05-01T06:50:19.357Z,50.08
2023-05-01T06:51:19.994Z,49.93
2023-05-01T06:52:19.379Z,49.28
2023-05-01T06:53:19.322Z,49.07
2023-05-01T06:54:19.325Z,49.18
2023-05-01T06:55:19.327Z,48.87
2023-05-01T06:56:19.372Z,49.23
2023-05-01T06:57:19.400Z,49.28
2023-05-01T06:58:23.894Z,49.39
2023-05-01T06:59:20.399Z,49.42
2023-05-01T07:00:19.401Z,49.33
2023-05-01T07:01:19.448Z,49.16
2023-05-01T07:02:20.240Z,48.71
2023-05-01T07:03:19.551Z,48.59
2023-05-01T07:04:19.342Z,48.17
2023-05-01T07:05:19.339Z,48.43
2023-05-01T07:06:19.372Z,48.67
2023-05-01T07:07:19.347Z,48.98
2023-05-01T07:08:19.330Z,48.83
2023-05-01T07:09:19.327Z,48.97
2023-05-01T07:10:19.315Z,49.14
2023-05-01T07:11:20.084Z,49.33
2023-05-01T07:12:19.304Z,49.33
2023-05-01T07:13:19.301Z,49.11
2023-05-01T07:14:19.292Z,48.64
2023-05-01T07:15:19.272Z,48.28
2023-05-01T07:16:19.302Z,48.79
2023-05-01T07:17:19.356Z,48.42
2023-05-01T07:18:19.258Z,48.95
2023-05-01T07:19:19.256Z,49.07
2023-05-01T07:20:19.264Z,49.09
2023-05-01T07:21:19.349Z,49.08
2023-05-01T07:22:19.506Z,49.28
2023-05-01T07:23:19.317Z,49.13
2023-05-01T07:24:19.332Z,49.00
2023-05-01T07:25:19.334Z,49.13
2023-05-01T07:26:19.376Z,49.09
2023-05-01T07:27:19.356Z,48.76
2023-05-01T07:28:19.473Z,48.70
2023-05-01T07:29:19.479Z,48.86
2023-05-01T07:30:19.472Z,49.16
2023-05-01T07:31:19.517Z,48.89
2023-05-01T07:32:19.549Z,49.14
2023-05-01T07:33:19.519Z,49.30
2023-05-01T07:34:19.586Z,49.26
2023-05-01T07:35:19.525Z,48.54
2023-05-01T07:36:19.561Z,48.77
2023-05-01T07:37:19.562Z,49.01
2023-05-01T07:38:19.577Z,48.85
2023-05-01T07:39:19.577Z,48.98
2023-05-01T07:40:19.613Z,49.19
2023-05-01T07:41:19.584Z,49.12
2023-05-01T07:42:19.604Z,49.31
2023-05-01T07:43:19.611Z,49.37
2023-05-01T07:44:19.622Z,48.80
2023-05-01T07:45:19.642Z,49.02
2023-05-01T07:46:19.693Z,49.06
2023-05-01T07:47:19.737Z,48.72
2023-05-01T07:48:19.811Z,49.30
2023-05-01T07:49:19.819Z,49.19
2023-05-01T07:50:19.846Z,49.01
2023-05-01T07:51:19.864Z,48.70
2023-05-01T07:52:19.855Z,48.76
2023-05-01T07:53:19.868Z,49.10
2023-05-01T07:54:19.922Z,49.51
2023-05-01T07:55:19.979Z,49.42
2023-05-01T07:56:20.002Z,49.24
2023-05-01T07:57:20.019Z,49.18
2023-05-01T07:58:20.065Z,49.58
2023-05-01T07:59:20.091Z,49.94
2023-05-01T08:00:20.135Z,50.14
2023-05-01T08:01:20.174Z,50.76
2023-05-01T08:02:20.273Z,49.87
2023-05-01T08:03:20.456Z,49.71
2023-05-01T08:04:20.464Z,49.71
2023-05-01T08:05:20.442Z,50.02
2023-05-01T08:06:20.498Z,49.81
2023-05-01T08:07:20.557Z,49.85
2023-05-01T08:08:20.675Z,49.88
2023-05-01T08:09:20.650Z,50.15
2023-05-01T08:10:20.699Z,49.67
2023-05-01T08:11:20.735Z,49.72
2023-05-01T08:12:20.819Z,50.01
2023-05-01T08:13:21.516Z,50.25
2023-05-01T08:14:20.900Z,49.84
2023-05-01T08:15:20.963Z,49.38
2023-05-01T08:16:22.106Z,49.51
2023-05-01T08:17:21.128Z,49.40
2023-05-01T08:18:21.361Z,49.48
2023-05-01T08:19:21.134Z,49.27
2023-05-01T08:20:21.174Z,49.35
2023-05-01T08:21:21.196Z,49.43
2023-05-01T08:22:21.238Z,48.80
2023-05-01T08:23:21.268Z,48.85
2023-05-01T08:24:21.308Z,49.55
2023-05-01T08:25:21.357Z,49.44
2023-05-01T08:26:22.876Z,49.46
2023-05-01T08:27:21.442Z,49.35
2023-05-01T08:28:21.546Z,49.44
2023-05-01T08:29:21.520Z,49.67
2023-05-01T08:30:21.542Z,49.49
2023-05-01T08:31:21.594Z,48.77
2023-05-01T08:32:21.657Z,48.64
2023-05-01T08:33:21.648Z,48.87
2023-05-01T08:34:21.699Z,49.34
2023-05-01T08:35:21.793Z,49.37
2023-05-01T08:36:21.751Z,49.06
2023-05-01T08:37:21.764Z,48.48
2023-05-01T08:38:21.783Z,48.73
2023-05-01T08:39:21.811Z,49.34
2023-05-01T08:40:21.836Z,48.88
2023-05-01T08:41:22.540Z,48.47
2023-05-01T08:42:21.910Z,48.28
2023-05-01T08:43:22.523Z,48.19
2023-05-01T08:44:22.009Z,48.25
2023-05-01T08:45:22.145Z,48.62
2023-05-01T08:46:22.050Z,48.54
2023-05-01T08:47:22.120Z,48.32
2023-05-01T08:48:22.070Z,47.68
2023-05-01T08:49:22.124Z,47.02
2023-05-01T08:50:23.133Z,47.26
2023-05-01T08:51:22.243Z,47.26
2023-05-01T08:52:22.278Z,47.63
2023-05-01T08:53:22.280Z,47.87
2023-05-01T08:54:22.386Z,46.93
2023-05-01T08:55:22.477Z,47.35
2023-05-01T08:56:22.444Z,47.54
2023-05-01T08:57:22.543Z,47.67
2023-05-01T08:58:22.509Z,46.58
2023-05-01T08:59:22.549Z,47.18
2023-05-01T09:00:22.643Z,46.30
2023-05-01T09:01:22.652Z,46.32
2023-05-01T09:02:22.728Z,46.34
2023-05-01T09:03:22.855Z,45.99
2023-05-01T09:04:22.758Z,45.98
2023-05-01T09:05:22.728Z,45.67
2023-05-01T09:06:22.822Z,45.96
2023-05-01T09:07:22.841Z,46.63
2023-05-01T09:08:22.978Z,46.95
2023-05-01T09:09:22.922Z,46.31
2023-05-01T09:10:23.003Z,45.88
2023-05-01T09:11:23.029Z,46.19
2023-05-01T09:12:23.056Z,45.99
2023-05-01T09:13:23.128Z,46.11
2023-05-01T09:14:23.126Z,46.66
2023-05-01T09:15:23.133Z,47.32
2023-05-01T09:16:23.242Z,47.67
2023-05-01T09:17:23.216Z,47.44
2023-05-01T09:18:23.221Z,47.18
2023-05-01T09:19:23.264Z,47.18
2023-05-01T09:20:23.246Z,46.79
2023-05-01T09:21:23.321Z,47.03
2023-05-01T09:22:23.284Z,47.33
2023-05-01T09:23:23.310Z,47.11
2023-05-01T09:24:23.323Z,47.34
2023-05-01T09:25:23.340Z,46.14
2023-05-01T09:26:23.320Z,45.98
2023-05-01T09:27:23.324Z,46.32
2023-05-01T09:28:23.351Z,46.34
2023-05-01T09:29:23.370Z,46.42
2023-05-01T09:30:23.352Z,45.94
2023-05-01T09:31:23.369Z,45.95
2023-05-01T09:32:23.523Z,45.65
2023-05-01T09:33:23.463Z,46.45
2023-05-01T09:34:23.387Z,46.08
2023-05-01T09:35:23.430Z,46.29
2023-05-01T09:36:23.413Z,45.92
2023-05-01T09:37:23.426Z,45.68
2023-05-01T09:38:23.431Z,45.60
2023-05-01T09:39:23.418Z,46.69
2023-05-01T09:40:23.423Z,46.41
2023-05-01T09:41:23.440Z,46.42
2023-05-01T09:42:23.463Z,45.44
2023-05-01T09:43:23.481Z,45.61
2023-05-01T09:44:23.478Z,45.69
2023-05-01T09:45:23.512Z,45.75
2023-05-01T09:46:23.502Z,45.89
2023-05-01T09:47:23.555Z,45.73
2023-05-01T09:48:23.511Z,45.52
2023-05-01T09:49:23.522Z,45.64
2023-05-01T09:50:23.515Z,45.50
2023-05-01T09:51:23.581Z,45.34
2023-05-01T09:52:23.599Z,45.36
2023-05-01T09:53:23.619Z,44.68
2023-05-01T09:54:23.641Z,44.49
2023-05-01T09:55:25.592Z,44.95
2023-05-01T09:56:23.684Z,44.82
2023-05-01T09:57:23.819Z,44.92
2023-05-01T09:58:23.747Z,44.94
2023-05-01T09:59:23.801Z,44.91
2023-05-01T10:00:23.911Z,44.86
2023-05-01T10:01:23.979Z,45.45
2023-05-01T10:02:24.163Z,45.02
2023-05-01T10:03:24.138Z,44.34
2023-05-01T10:04:24.130Z,45.05
2023-05-01T10:05:24.164Z,45.45
2023-05-01T10:06:24.308Z,45.48
2023-05-01T10:07:24.240Z,44.85
2023-05-01T10:08:24.313Z,44.34
2023-05-01T10:09:24.294Z,44.31
2023-05-01T10:10:24.361Z,44.03
2023-05-01T10:11:24.376Z,43.93
2023-05-01T10:12:24.384Z,43.77
2023-05-01T10:13:24.436Z,43.63
2023-05-01T10:14:24.507Z,43.38
2023-05-01T10:15:26.274Z,43.36
2023-05-01T10:16:24.629Z,43.04
2023-05-01T10:17:24.687Z,43.28
2023-05-01T10:18:24.661Z,43.12
2023-05-01T10:19:24.677Z,43.12
2023-05-01T10:20:24.729Z,43.59
2023-05-01T10:21:24.752Z,43.23
2023-05-01T10:22:24.775Z,42.95
2023-05-01T10:23:24.810Z,42.86
2023-05-01T10:24:24.837Z,43.10
2023-05-01T10:25:24.895Z,43.96
2023-05-01T10:26:24.895Z,43.39
2023-05-01T10:27:24.874Z,43.14
2023-05-01T10:28:24.892Z,43.28
2023-05-01T10:29:24.897Z,42.88
2023-05-01T10:30:24.916Z,42.68
2023-05-01T10:31:24.920Z,42.21
2023-05-01T10:32:24.968Z,40.72
2023-05-01T10:33:24.943Z,40.89
2023-05-01T10:34:26.359Z,40.22
2023-05-01T10:35:24.925Z,40.23
2023-05-01T10:36:24.953Z,40.35
2023-05-01T10:37:24.910Z,40.67
2023-05-01T10:38:24.906Z,41.54
2023-05-01T10:39:24.906Z,41.20
2023-05-01T10:40:24.876Z,41.07
2023-05-01T10:41:24.888Z,41.88
2023-05-01T10:42:24.904Z,42.96
2023-05-01T10:43:24.887Z,42.20
2023-05-01T10:44:24.918Z,42.98
2023-05-01T10:45:24.868Z,44.30
2023-05-01T10:46:24.931Z,43.74
2023-05-01T10:47:24.958Z,43.88
2023-05-01T10:48:24.830Z,42.85
2023-05-01T10:49:24.838Z,42.56
2023-05-01T10:50:24.839Z,43.72
2023-05-01T10:51:27.506Z,43.97
2023-05-01T10:52:24.785Z,43.13
2023-05-01T10:53:25.567Z,42.74
2023-05-01T10:54:24.854Z,43.95
2023-05-01T10:55:24.808Z,43.33
2023-05-01T10:56:24.776Z,43.58
2023-05-01T10:57:24.751Z,43.71
2023-05-01T10:58:24.774Z,42.78
2023-05-01T10:59:24.760Z,43.20
2023-05-01T11:00:24.762Z,43.62
2023-05-01T11:01:24.767Z,43.72
2023-05-01T11:02:24.847Z,43.48
2023-05-01T11:03:24.788Z,43.02
2023-05-01T11:04:24.853Z,42.31
2023-05-01T11:05:38.036Z,41.89
2023-05-01T11:06:25.841Z,43.23
2023-05-01T11:07:24.756Z,42.63
2023-05-01T11:08:24.772Z,42.29
2023-05-01T11:09:24.875Z,42.54
2023-05-01T11:10:24.669Z,41.96
2023-05-01T11:11:25.577Z,41.84
2023-05-01T11:12:24.757Z,41.28
2023-05-01T11:13:24.783Z,41.43
2023-05-01T11:14:24.642Z,41.04
2023-05-01T11:15:24.657Z,40.84
2023-05-01T11:16:24.696Z,40.49
2023-05-01T11:17:24.641Z,40.31
2023-05-01T11:18:24.699Z,40.04
2023-05-01T11:19:24.620Z,40.12
2023-05-01T11:20:24.622Z,40.34
2023-05-01T11:21:24.597Z,40.52
2023-05-01T11:22:24.583Z,41.79
2023-05-01T11:23:24.592Z,41.41
2023-05-01T11:24:24.574Z,40.79
2023-05-01T11:25:24.592Z,40.75
2023-05-01T11:26:24.572Z,39.53
2023-05-01T11:27:24.553Z,39.48
2023-05-01T11:28:24.566Z,39.38
2023-05-01T11:29:24.550Z,39.59
2023-05-01T11:30:24.545Z,39.42
2023-05-01T11:31:24.636Z,39.69
2023-05-01T11:32:24.739Z,39.75
2023-05-01T11:33:24.696Z,39.38
2023-05-01T11:34:24.741Z,39.23
2023-05-01T11:35:24.788Z,39.63
2023-05-01T11:36:24.829Z,40.01
2023-05-01T11:37:24.810Z,40.44
2023-05-01T11:38:24.844Z,39.51
2023-05-01T11:39:24.842Z,40.70
2023-05-01T11:40:24.865Z,40.83
2023-05-01T11:41:24.858Z,40.88
2023-05-01T11:42:24.881Z,40.35
2023-05-01T11:43:24.879Z,41.15
2023-05-01T11:44:24.875Z,41.17
2023-05-01T11:45:24.871Z,40.70
2023-05-01T11:46:24.959Z,40.91
2023-05-01T11:47:24.958Z,40.88
2023-05-01T11:48:24.933Z,40.63
2023-05-01T11:49:24.953Z,39.90
2023-05-01T11:50:24.960Z,40.29
2023-05-01T11:51:24.979Z,39.84
2023-05-01T11:52:25.044Z,39.78
2023-05-01T11:53:25.098Z,40.01
2023-05-01T11:54:25.173Z,40.99
2023-05-01T11:55:25.233Z,41.27
2023-05-01T11:56:27.049Z,41.34
2023-05-01T11:57:25.317Z,40.95
2023-05-01T11:58:25.366Z,40.99
2023-05-01T11:59:25.425Z,40.72
2023-05-01T12:00:25.452Z,40.59
2023-05-01T12:01:25.512Z,40.62
2023-05-01T12:02:25.762Z,40.59
2023-05-01T12:03:25.817Z,40.84
2023-05-01T12:04:26.517Z,40.26
2023-05-01T12:05:25.785Z,40.41
2023-05-01T12:06:25.856Z,40.81
2023-05-01T12:07:25.883Z,40.77
2023-05-01T12:08:25.986Z,41.25
2023-05-01T12:09:26.001Z,40.88
2023-05-01T12:10:26.056Z,41.47
2023-05-01T12:11:26.081Z,41.48
2023-05-01T12:12:26.118Z,41.08
2023-05-01T12:13:26.121Z,41.27
2023-05-01T12:14:26.121Z,42.00
2023-05-01T12:15:26.147Z,42.11
2023-05-01T12:16:26.177Z,41.84
2023-05-01T12:17:26.438Z,41.90
2023-05-01T12:18:26.355Z,41.95
2023-05-01T12:19:26.284Z,41.13
2023-05-01T12:20:26.363Z,41.40
2023-05-01T12:21:26.330Z,41.61
2023-05-01T12:22:26.322Z,41.56
2023-05-01T12:23:26.326Z,41.67
2023-05-01T12:24:26.357Z,42.01
2023-05-01T12:25:26.429Z,42.05
2023-05-01T12:26:26.475Z,42.75
2023-05-01T12:27:26.526Z,42.84
2023-05-01T12:28:26.613Z,42.44
2023-05-01T12:29:26.707Z,42.38
2023-05-01T12:30:26.726Z,41.99
2023-05-01T12:31:26.862Z,42.58
2023-05-01T12:32:26.867Z,42.40
2023-05-01T12:33:26.917Z,43.06
2023-05-01T12:34:26.968Z,43.01
2023-05-01T12:35:27.035Z,41.44
2023-05-01T12:36:27.086Z,40.87
2023-05-01T12:37:27.124Z,40.83
2023-05-01T12:38:27.204Z,40.52
2023-05-01T12:39:27.254Z,39.70
2023-05-01T12:40:27.306Z,39.42
2023-05-01T12:41:27.362Z,39.69
2023-05-01T12:42:28.080Z,39.68
2023-05-01T12:43:27.498Z,39.20
2023-05-01T12:44:27.566Z,38.58
2023-05-01T12:45:27.613Z,38.66
2023-05-01T12:46:27.706Z,38.71
2023-05-01T12:47:27.700Z,38.74
2023-05-01T12:48:28.106Z,38.59
2023-05-01T12:49:27.793Z,38.47
2023-05-01T12:50:27.844Z,38.29
2023-05-01T12:51:27.854Z,37.13
2023-05-01T12:52:27.855Z,36.00